Time;durP1;ratioP1;P1;durP2;ratioP2;P2;SDS_P1;SDS_P2;PMS_P1;PMS_P2;Temp;Humidity;BMP_temperature;BMP_pressure;BME280_temperature;BME280_humidity;BME280_pressure;Samples;Min_cycle;Max_cycle;Signal;HPM_P1;HPM_P2
2021/09/29 00:01:58;;;;;;;4.72;2.47;;;;;;;16.18;57.84;100691.16;5089883;28;20024;-21
2021/09/29 00:04:23;;;;;;;5.20;2.70;;;;;;;16.22;57.96;100716.53;5089898;28;20031;-21
2021/09/29 00:06:49;;;;;;;7.53;2.92;;;;;;;16.26;57.83;100709.63;5089349;28;20028;-21
2021/09/29 00:09:14;;;;;;;4.25;2.30;;;;;;;16.06;58.26;100710.88;5089569;28;20035;-21
2021/09/29 00:11:40;;;;;;;6.15;2.67;;;;;;;15.99;58.26;100717.44;5089552;28;20028;-22
2021/09/29 00:14:06;;;;;;;4.45;2.30;;;;;;;16.07;58.34;100712.50;5089517;28;20028;-21
2021/09/29 00:16:31;;;;;;;5.60;2.63;;;;;;;16.11;58.34;100726.28;5089393;28;20063;-21
2021/09/29 00:18:57;;;;;;;5.00;2.80;;;;;;;15.89;58.86;100711.84;5089077;28;20112;-22
2021/09/29 00:21:22;;;;;;;5.97;2.72;;;;;;;15.84;59.23;100721.47;5089264;28;20028;-21
2021/09/29 00:23:48;;;;;;;6.18;2.50;;;;;;;15.97;58.67;100719.56;5089483;28;20035;-21
2021/09/29 00:26:14;;;;;;;4.85;2.53;;;;;;;16.18;57.93;100707.31;5089143;28;20020;-22
2021/09/29 00:28:39;;;;;;;5.05;2.70;;;;;;;16.02;58.37;100712.41;5089171;28;20043;-21
2021/09/29 00:31:05;;;;;;;6.10;2.80;;;;;;;16.14;58.12;100722.31;5089274;28;20081;-21
2021/09/29 00:33:36;;;;;;;5.63;2.85;;;;;;;15.93;58.07;100684.25;5089020;28;20428;-21
2021/09/29 00:36:01;;;;;;;6.07;2.70;;;;;;;16.01;58.34;100701.88;5088992;28;20036;-22
2021/09/29 00:38:30;;;;;;;5.32;3.03;;;;;;;16.05;58.33;100714.59;5089152;28;20127;-21
2021/09/29 00:40:59;;;;;;;4.72;2.88;;;;;;;16.05;58.71;100714.59;5088776;28;20114;-21
2021/09/29 00:43:25;;;;;;;7.97;2.97;;;;;;;15.94;58.76;100712.78;5089011;28;20028;-21
2021/09/29 00:45:52;;;;;;;5.13;2.70;;;;;;;16.21;58.17;100712.22;5088994;28;20040;-22
2021/09/29 00:48:17;;;;;;;5.38;2.92;;;;;;;15.89;59.18;100704.59;5089062;28;20115;-21
2021/09/29 00:50:43;;;;;;;5.95;3.25;;;;;;;15.82;59.56;100695.88;5088690;28;20036;-21
2021/09/29 00:53:09;;;;;;;4.95;2.80;;;;;;;15.97;59.35;100709.59;5088687;28;20056;-21
2021/09/29 00:55:34;;;;;;;6.00;3.17;;;;;;;16.21;59.03;100712.22;5054240;28;20035;-22
2021/09/29 00:57:59;;;;;;;4.78;2.95;;;;;;;15.79;60.15;100709.78;5070892;28;20035;-21
2021/09/29 01:00:25;;;;;;;7.75;2.90;;;;;;;15.72;60.57;100709.06;5089155;28;20028;-22
2021/09/29 01:02:51;;;;;;;6.43;3.17;;;;;;;15.69;61.15;100710.34;5092990;28;20381;-22
2021/09/29 01:05:16;;;;;;;6.70;3.63;;;;;;;15.55;60.97;100677.53;5074989;28;20167;-22
2021/09/29 01:08:15;;;;;;;5.18;3.00;;;;;;;15.84;60.61;100701.81;5092921;28;20036;-21
2021/09/29 01:10:57;;;;;;;5.85;3.28;;;;;;;15.52;61.23;100687.94;5086247;28;20062;-22
2021/09/29 01:13:30;;;;;;;6.80;3.70;;;;;;;15.57;61.44;100705.00;5092848;28;20603;-21
2021/09/29 01:15:57;;;;;;;7.25;3.50;;;;;;;15.74;61.80;100707.00;5074830;28;20024;-22
2021/09/29 01:18:24;;;;;;;6.40;3.80;;;;;;;15.67;61.33;100690.94;5074794;28;20036;-22
2021/09/29 01:20:53;;;;;;;9.00;4.03;;;;;;;15.85;61.05;100698.06;5092484;28;20396;-21
2021/09/29 01:23:30;;;;;;;6.90;3.92;;;;;;;15.77;61.64;100706.50;5075070;28;20038;-21
2021/09/29 01:25:59;;;;;;;4.97;3.55;;;;;;;15.54;62.56;100697.41;5092742;28;20032;-22
2021/09/29 01:28:45;;;;;;;6.25;3.70;;;;;;;15.37;63.10;100683.06;5092825;28;20858;-22
2021/09/29 01:31:11;;;;;;;8.10;3.92;;;;;;;15.58;62.90;100706.63;5092617;28;20036;-22
2021/09/29 01:33:36;;;;;;;6.78;3.97;;;;;;;15.29;63.77;100704.91;5057706;28;20036;-22
2021/09/29 01:36:02;;;;;;;5.88;4.30;;;;;;;15.33;63.81;100706.91;5057710;28;20039;-21
2021/09/29 01:38:28;;;;;;;7.38;4.25;;;;;;;15.18;64.57;100693.94;5092233;28;20028;-21
2021/09/29 01:40:53;;;;;;;8.32;4.55;;;;;;;15.29;64.27;100704.91;5074023;28;20093;-21
2021/09/29 01:43:19;;;;;;;9.45;5.55;;;;;;;15.25;64.29;100693.81;5092693;28;20039;-21
2021/09/29 01:45:45;;;;;;;7.97;4.25;;;;;;;15.53;64.71;100711.91;5092666;28;20028;-22
2021/09/29 01:48:11;;;;;;;7.63;4.82;;;;;;;15.29;66.04;100705.72;5092182;28;20032;-21
2021/09/29 01:50:36;;;;;;;7.20;4.53;;;;;;;15.14;68.61;100708.91;5091905;28;20039;-21
2021/09/29 01:53:02;;;;;;;7.38;5.05;;;;;;;14.94;71.27;100719.16;5073800;28;20042;-22
2021/09/29 01:55:28;;;;;;;7.40;4.57;;;;;;;14.66;72.75;100713.38;5057377;28;20076;-21
2021/09/29 01:57:53;;;;;;;6.68;4.30;;;;;;;14.76;73.59;100723.53;5091992;28;20097;-21
2021/09/29 02:00:19;;;;;;;6.82;4.22;;;;;;;14.47;74.52;100709.91;5092156;28;20036;-21
2021/09/29 02:02:45;;;;;;;6.90;5.05;;;;;;;14.42;75.69;100725.84;5091735;28;20123;-21
2021/09/29 02:05:11;;;;;;;6.95;4.88;;;;;;;14.33;76.77;100723.75;5092133;28;20071;-21
2021/09/29 02:07:37;;;;;;;8.15;5.50;;;;;;;14.25;76.02;100690.00;5091972;28;20036;-21
2021/09/29 02:10:04;;;;;;;7.22;5.35;;;;;;;14.53;76.65;100720.78;5073987;28;20027;-21
2021/09/29 02:12:30;;;;;;;7.68;5.60;;;;;;;14.20;77.02;100708.63;5090626;28;20081;-22
2021/09/29 02:14:56;;;;;;;7.95;5.82;;;;;;;14.42;76.80;100723.19;5091698;28;20089;-21
2021/09/29 02:17:21;;;;;;;8.75;5.45;;;;;;;14.31;77.05;100726.66;5091624;28;20035;-22
2021/09/29 02:19:47;;;;;;;10.05;5.97;;;;;;;14.39;77.03;100731.69;5091720;28;20392;-21
2021/09/29 02:22:16;;;;;;;8.63;5.30;;;;;;;14.49;76.18;100727.66;5091562;28;20028;-22
2021/09/29 02:24:45;;;;;;;8.38;5.68;;;;;;;14.52;76.09;100727.19;5091382;28;20032;-21
2021/09/29 02:27:11;;;;;;;7.97;5.70;;;;;;;14.58;75.63;100710.19;5091369;28;20510;-22
2021/09/29 02:29:36;;;;;;;10.48;6.47;;;;;;;14.43;75.58;100734.75;5091506;28;20028;-21
2021/09/29 02:32:02;;;;;;;12.77;5.68;;;;;;;14.76;74.26;100728.09;5091226;28;20060;-22
2021/09/29 02:34:27;;;;;;;9.38;5.40;;;;;;;14.80;73.88;100723.91;5091190;28;20039;-22
2021/09/29 02:36:53;;;;;;;8.13;5.63;;;;;;;14.69;73.85;100714.78;5091109;28;20031;-22
2021/09/29 02:39:18;;;;;;;8.25;5.43;;;;;;;14.80;73.68;100727.41;5091384;28;20063;-21
2021/09/29 02:41:44;;;;;;;9.15;5.68;;;;;;;14.99;72.89;100730.81;5091166;28;20396;-22
2021/09/29 02:44:11;;;;;;;7.30;4.80;;;;;;;14.75;73.83;100713.88;5091246;28;20032;-21
2021/09/29 02:46:37;;;;;;;7.45;5.57;;;;;;;14.86;72.97;100728.38;5090962;28;20032;-22
2021/09/29 02:49:03;;;;;;;10.00;5.40;;;;;;;15.20;72.52;100733.97;5090930;28;20063;-22
2021/09/29 02:51:28;;;;;;;7.07;5.15;;;;;;;15.03;72.68;100728.50;5091093;28;20027;-22
2021/09/29 02:53:54;;;;;;;7.68;5.15;;;;;;;15.10;72.28;100734.59;5090692;28;20044;-22
2021/09/29 02:56:19;;;;;;;7.13;5.50;;;;;;;15.05;72.42;100746.00;5090869;28;20047;-21
2021/09/29 02:58:44;;;;;;;8.38;5.43;;;;;;;15.09;72.05;100737.50;5090866;28;20039;-21
2021/09/29 03:01:10;;;;;;;10.38;5.47;;;;;;;15.19;71.72;100737.75;5091088;28;20483;-22
2021/09/29 03:03:35;;;;;;;7.53;5.45;;;;;;;15.31;71.60;100735.88;5091015;28;20065;-22
2021/09/29 03:06:01;;;;;;;8.27;5.85;;;;;;;15.31;71.22;100735.06;5090732;28;20399;-22
2021/09/29 03:08:26;;;;;;;8.15;5.32;;;;;;;15.30;70.99;100734.22;5090647;28;20039;-22
2021/09/29 03:10:52;;;;;;;9.43;5.28;;;;;;;15.53;70.69;100744.16;5090347;28;20028;-21
2021/09/29 03:13:17;;;;;;;7.10;5.28;;;;;;;15.44;70.66;100732.13;5090539;28;20039;-22
2021/09/29 03:15:43;;;;;;;8.13;5.50;;;;;;;15.39;70.05;100737.41;5090635;28;20028;-22
2021/09/29 03:18:08;;;;;;;8.43;5.03;;;;;;;15.35;70.52;100730.84;5090415;28;20032;-22
2021/09/29 03:20:34;;;;;;;8.95;5.22;;;;;;;15.27;71.15;100714.03;5090293;28;20056;-21
2021/09/29 03:23:00;;;;;;;9.52;5.95;;;;;;;15.43;70.50;100719.75;5090518;28;20488;-21
2021/09/29 03:25:25;;;;;;;10.57;5.75;;;;;;;15.70;69.47;100736.19;5090057;28;20093;-22
2021/09/29 03:27:51;;;;;;;8.02;5.40;;;;;;;15.75;69.22;100736.34;5090396;28;20028;-22
2021/09/29 03:30:16;;;;;;;7.88;5.20;;;;;;;15.84;68.81;100728.72;5090270;28;20134;-22
2021/09/29 03:32:42;;;;;;;8.73;5.40;;;;;;;15.65;69.32;100736.91;5089664;28;20043;-22
2021/09/29 03:35:09;;;;;;;9.50;5.50;;;;;;;15.41;69.13;100714.59;5090087;28;20028;-22
2021/09/29 03:37:34;;;;;;;8.68;5.43;;;;;;;15.31;69.54;100700.13;5090320;28;20024;-22
2021/09/29 03:40:00;;;;;;;7.70;5.32;;;;;;;15.73;68.53;100724.97;5090143;28;20074;-24
2021/09/29 03:42:25;;;;;;;7.47;5.07;;;;;;;15.56;69.02;100714.09;5090062;28;20036;-22
2021/09/29 03:44:51;;;;;;;8.18;5.18;;;;;;;15.93;67.85;100729.97;5089902;28;20028;-22
2021/09/29 03:47:17;;;;;;;10.43;6.53;;;;;;;16.21;67.34;100731.06;5089861;28;20039;-21
2021/09/29 03:49:42;;;;;;;11.55;5.47;;;;;;;16.31;66.38;100733.94;5090031;28;20478;-22
2021/09/29 03:52:08;;;;;;;8.82;5.28;;;;;;;16.13;66.45;100704.53;5089917;28;20042;-22
2021/09/29 03:54:33;;;;;;;8.65;5.65;;;;;;;16.30;66.93;100726.91;5089236;28;20495;-21
2021/09/29 03:57:00;;;;;;;7.93;5.18;;;;;;;16.46;65.93;100726.13;5089787;28;20024;-21
2021/09/29 03:59:26;;;;;;;8.23;5.07;;;;;;;16.64;64.93;100729.69;5089609;28;20520;-21
2021/09/29 04:01:51;;;;;;;7.47;5.47;;;;;;;16.71;64.61;100722.25;5089690;28;20023;-21
2021/09/29 04:04:17;;;;;;;24.20;6.20;;;;;;;16.81;64.48;100741.31;5089794;28;20035;-21
2021/09/29 04:06:43;;;;;;;25.77;6.57;;;;;;;16.43;65.99;100748.16;5089399;28;20088;-21
2021/09/29 04:09:08;;;;;;;9.02;5.32;;;;;;;16.49;64.76;100735.63;5089480;28;20031;-21
2021/09/29 04:11:34;;;;;;;8.65;5.60;;;;;;;16.48;64.90;100742.88;5089485;28;20504;-22
2021/09/29 04:13:59;;;;;;;10.13;5.70;;;;;;;16.66;63.80;100739.16;5089355;28;20043;-21
2021/09/29 04:16:25;;;;;;;8.32;5.47;;;;;;;16.48;64.59;100728.59;5089636;28;20061;-22
2021/09/29 04:18:51;;;;;;;7.90;5.07;;;;;;;16.43;64.68;100742.78;5089221;28;20155;-22
2021/09/29 04:21:16;;;;;;;11.70;5.68;;;;;;;16.59;64.27;100737.66;5089529;28;20036;-22
2021/09/29 04:23:42;;;;;;;9.48;5.55;;;;;;;16.69;63.86;100751.31;5089231;28;20055;-22
2021/09/29 04:26:07;;;;;;;12.90;5.68;;;;;;;16.27;65.33;100733.59;5089396;28;20040;-21
2021/09/29 04:28:33;;;;;;;11.80;5.75;;;;;;;16.45;64.76;100762.22;5089184;28;20045;-22
2021/09/29 04:30:59;;;;;;;13.32;5.22;;;;;;;16.37;64.69;100757.22;5089186;28;20032;-21
2021/09/29 04:33:25;;;;;;;12.15;4.75;;;;;;;16.41;64.26;100739.53;5088873;28;20068;-21
2021/09/29 04:35:50;;;;;;;9.77;5.65;;;;;;;16.65;63.39;100750.16;5070656;28;20434;-22
2021/09/29 04:38:16;;;;;;;10.85;7.03;;;;;;;16.71;63.61;100765.34;5071174;28;20027;-22
2021/09/29 04:40:41;;;;;;;13.63;6.18;;;;;;;16.94;62.56;100758.22;5088859;28;20031;-21
2021/09/29 04:43:07;;;;;;;11.32;5.68;;;;;;;16.35;63.75;100751.25;5089074;28;20032;-22
2021/09/29 04:45:32;;;;;;;8.43;5.13;;;;;;;16.50;63.11;100753.41;5089103;28;20112;-21
2021/09/29 04:48:01;;;;;;;8.40;4.60;;;;;;;16.55;63.45;100771.53;5088969;28;20103;-21
2021/09/29 04:50:26;;;;;;;8.68;5.15;;;;;;;16.25;64.58;100767.22;5089009;28;20032;-22
2021/09/29 04:52:51;;;;;;;8.13;4.57;;;;;;;16.59;63.42;100778.06;5088943;28;20035;-22
2021/09/29 04:55:17;;;;;;;9.38;5.10;;;;;;;16.43;63.74;100774.28;5088898;28;20024;-21
2021/09/29 04:57:43;;;;;;;8.00;4.82;;;;;;;16.23;64.70;100780.09;5089086;28;20407;-22
2021/09/29 05:00:08;;;;;;;6.68;4.80;;;;;;;16.23;64.61;100743.22;5088844;28;20139;-23
2021/09/29 05:02:34;;;;;;;6.57;4.82;;;;;;;16.52;63.63;100763.94;5088430;28;20032;-22
2021/09/29 05:04:59;;;;;;;8.70;5.05;;;;;;;16.06;65.23;100782.72;5088866;28;20560;-22
2021/09/29 05:07:25;;;;;;;7.53;4.38;;;;;;;16.40;65.26;100780.13;5088779;28;20039;-22
2021/09/29 05:09:50;;;;;;;6.15;3.90;;;;;;;16.67;64.12;100780.34;5088775;28;20055;-22
2021/09/29 05:12:26;;;;;;;23.10;5.72;;;;;;;16.50;64.13;100779.50;5087634;28;20047;-22
2021/09/29 05:14:52;;;;;;;8.88;5.05;;;;;;;16.38;64.23;100769.59;5088552;28;20779;-22
2021/09/29 05:17:18;;;;;;;8.48;4.43;;;;;;;16.60;63.96;100785.09;5089062;28;20883;-22
2021/09/29 05:19:43;;;;;;;7.25;4.80;;;;;;;16.51;64.06;100786.53;5088808;28;20043;-22
2021/09/29 05:22:09;;;;;;;7.93;4.40;;;;;;;16.21;65.35;100792.97;5088612;28;20471;-22
2021/09/29 05:24:34;;;;;;;9.45;4.75;;;;;;;15.97;66.06;100773.34;5070492;28;20024;-22
2021/09/29 05:27:00;;;;;;;9.10;4.32;;;;;;;16.24;65.60;100798.69;5088668;28;20051;-22
2021/09/29 05:29:25;;;;;;;9.20;4.70;;;;;;;16.31;64.97;100781.59;5088937;28;20032;-23
2021/09/29 05:31:51;;;;;;;11.65;4.82;;;;;;;16.73;63.88;100798.25;5088648;28;20032;-23
2021/09/29 05:34:16;;;;;;;9.27;4.70;;;;;;;16.85;63.77;100803.59;5088469;28;20024;-22
2021/09/29 05:36:45;;;;;;;12.05;5.40;;;;;;;16.80;63.69;100798.94;5088342;28;20490;-22
2021/09/29 05:39:11;;;;;;;10.25;6.00;;;;;;;16.82;63.38;100794.16;5088720;28;20031;-22
2021/09/29 05:41:36;;;;;;;10.23;5.70;;;;;;;16.84;63.69;100800.09;5088527;28;20067;-22
2021/09/29 05:44:02;;;;;;;9.25;5.47;;;;;;;16.69;63.65;100786.31;5088350;28;20028;-23
2021/09/29 05:46:29;;;;;;;9.05;5.10;;;;;;;16.76;63.40;100789.69;5088568;28;20036;-22
2021/09/29 05:48:55;;;;;;;11.00;6.32;;;;;;;16.67;63.74;100808.13;5092025;28;20032;-22
2021/09/29 05:51:20;;;;;;;88.47;37.53;;;;;;;16.45;64.99;100799.91;5092184;28;20044;-22
2021/09/29 05:53:45;;;;;;;94.72;37.53;;;;;;;16.10;66.55;100808.09;5091846;28;20047;-22
2021/09/29 05:56:13;;;;;;;38.70;17.67;;;;;;;16.10;66.92;100820.69;5092276;28;20504;-22
2021/09/29 05:58:40;;;;;;;15.02;6.32;;;;;;;16.24;66.06;100827.44;5091867;28;20056;-22
2021/09/29 06:01:05;;;;;;;16.42;7.68;;;;;;;16.49;65.38;100843.31;5092085;28;20032;-22
2021/09/29 06:03:31;;;;;;;16.95;8.80;;;;;;;16.74;65.05;100845.69;5092303;28;20035;-23
2021/09/29 06:05:56;;;;;;;40.47;20.33;;;;;;;16.76;64.60;100838.19;5091538;28;20051;-22
2021/09/29 06:08:22;;;;;;;58.58;29.85;;;;;;;16.76;64.25;100838.19;5091445;28;20473;-23
2021/09/29 06:10:47;;;;;;;15.45;8.93;;;;;;;16.72;63.76;100837.03;5091354;28;20026;-23
2021/09/29 06:13:13;;;;;;;13.13;8.52;;;;;;;16.85;63.81;100825.16;5091440;28;20054;-22
2021/09/29 06:15:41;;;;;;;12.73;8.77;;;;;;;16.84;63.26;100845.09;5091051;28;20055;-22
2021/09/29 06:18:12;;;;;;;13.52;10.32;;;;;;;16.98;61.93;100827.56;5091093;28;20032;-24
2021/09/29 06:20:40;;;;;;;15.63;12.27;;;;;;;16.79;61.74;100843.06;5090775;28;20036;-22
2021/09/29 06:23:06;;;;;;;;;;;;;;;16.91;61.80;100855.72;5074021;28;20028;-22
2021/09/29 06:25:31;;;;;;;16.20;11.23;;;;;;;17.09;61.18;100852.00;5091462;28;19943;-22
2021/09/29 06:27:57;;;;;;;15.90;10.85;;;;;;;17.10;62.07;100865.22;5091452;28;20033;-22
2021/09/29 06:30:22;;;;;;;15.65;11.18;;;;;;;16.96;63.18;100864.72;5091546;28;20111;-22
2021/09/29 06:32:48;;;;;;;14.18;9.95;;;;;;;16.95;61.24;100844.19;5072809;28;20100;-22
2021/09/29 06:35:13;;;;;;;17.45;12.73;;;;;;;17.23;60.48;100858.72;5091472;28;20051;-22
2021/09/29 06:37:39;;;;;;;15.90;12.45;;;;;;;17.28;60.29;100861.47;5091423;28;20074;-22
2021/09/29 06:40:07;;;;;;;15.77;11.20;;;;;;;17.25;61.06;100862.78;5091262;28;20719;-22
2021/09/29 06:42:32;;;;;;;13.50;8.05;;;;;;;17.16;60.52;100858.88;5073359;28;20036;-22
2021/09/29 06:44:58;;;;;;;15.27;10.98;;;;;;;17.14;60.78;100862.84;5091252;28;20020;-22
2021/09/29 06:47:23;;;;;;;22.80;12.93;;;;;;;17.36;60.40;100862.97;5091124;28;20036;-22
2021/09/29 06:49:49;;;;;;;21.02;10.80;;;;;;;17.18;60.43;100856.75;5091069;28;20046;-22
2021/09/29 06:52:14;;;;;;;12.90;9.05;;;;;;;17.19;60.77;100863.75;5091133;28;20031;-22
2021/09/29 06:54:40;;;;;;;11.50;8.20;;;;;;;17.21;60.70;100871.63;5106260;28;20430;-22
2021/09/29 06:57:07;;;;;;;14.00;9.02;;;;;;;17.40;60.74;100867.59;5111178;28;20043;-21
2021/09/29 06:59:35;;;;;;;20.35;14.65;;;;;;;17.31;61.07;100849.41;5110841;28;20042;-22
2021/09/29 07:02:00;;;;;;;13.75;8.95;;;;;;;17.03;61.43;100864.56;5111205;28;20061;-22
2021/09/29 07:04:26;;;;;;;11.50;8.05;;;;;;;16.74;62.35;100878.00;5111180;28;20031;-22
2021/09/29 07:06:51;;;;;;;10.10;7.88;;;;;;;16.65;62.52;100865.97;5111164;28;20144;-22
2021/09/29 07:09:16;;;;;;;20.27;14.32;;;;;;;16.79;62.26;100875.38;5111260;28;20028;-22
2021/09/29 07:11:42;;;;;;;11.70;7.00;;;;;;;16.93;61.78;100870.56;5110836;28;20035;-22
2021/09/29 07:14:07;;;;;;;23.33;16.38;;;;;;;16.93;62.32;100877.84;5111022;28;20453;-22
2021/09/29 07:16:33;;;;;;;35.78;23.08;;;;;;;16.90;61.99;100876.47;5110677;28;20047;-22
2021/09/29 07:19:02;;;;;;;14.07;6.65;;;;;;;17.00;61.58;100887.41;5111171;28;20043;-22
2021/09/29 07:21:28;;;;;;;21.17;14.25;;;;;;;16.70;62.70;100874.16;5110925;28;20038;-22
2021/09/29 07:23:53;;;;;;;10.02;7.75;;;;;;;16.95;61.84;100881.13;5110704;28;20020;-22
2021/09/29 07:26:19;;;;;;;11.55;7.35;;;;;;;17.08;61.31;100872.75;5110641;28;20031;-22
2021/09/29 07:28:44;;;;;;;14.10;8.60;;;;;;;17.14;61.45;100887.94;5110557;28;20039;-22
2021/09/29 07:31:10;;;;;;;15.80;12.65;;;;;;;16.85;62.20;100879.03;5110442;28;20036;-23
2021/09/29 07:33:36;;;;;;;11.40;8.70;;;;;;;17.30;61.17;100888.19;5110465;28;20490;-23
2021/09/29 07:36:01;;;;;;;13.05;9.60;;;;;;;17.44;61.17;100889.53;5110624;28;20038;-22
2021/09/29 07:38:28;;;;;;;75.85;37.88;;;;;;;17.45;60.35;100864.19;5110609;28;20114;-22
2021/09/29 07:40:54;;;;;;;25.02;15.20;;;;;;;17.72;59.77;100877.03;5110361;28;20042;-22
2021/09/29 07:43:20;;;;;;;10.95;6.20;;;;;;;17.64;58.49;100892.53;5110333;28;20555;-22
2021/09/29 07:45:45;;;;;;;10.65;6.70;;;;;;;17.47;59.73;100899.84;5110281;28;20031;-22
2021/09/29 07:48:11;;;;;;;7.88;5.75;;;;;;;17.43;58.83;100901.38;5110500;28;20470;-22
2021/09/29 07:50:36;;;;;;;12.27;8.88;;;;;;;17.25;60.76;100905.91;5110325;28;20087;-22
2021/09/29 07:53:02;;;;;;;11.18;8.27;;;;;;;16.48;63.26;100874.78;5110006;28;20031;-22
2021/09/29 07:55:28;;;;;;;15.45;9.88;;;;;;;16.30;65.01;100895.66;5110111;28;20043;-22
2021/09/29 07:57:53;;;;;;;14.32;10.80;;;;;;;16.34;65.96;100894.94;5110268;28;20054;-22
2021/09/29 08:00:19;;;;;;;12.77;8.00;;;;;;;16.37;65.93;100883.72;5110029;28;20039;-22
2021/09/29 08:02:45;;;;;;;12.02;8.68;;;;;;;16.44;66.87;100900.56;5109678;28;20109;-22
2021/09/29 08:05:11;;;;;;;11.57;8.77;;;;;;;16.59;66.96;100904.63;5091734;28;20080;-22
2021/09/29 08:07:38;;;;;;;11.93;9.00;;;;;;;16.41;68.26;100906.44;5109984;28;20023;-22
2021/09/29 08:10:05;;;;;;;13.52;9.65;;;;;;;16.55;67.64;100903.47;5109293;28;20031;-22
2021/09/29 08:12:30;;;;;;;15.30;10.65;;;;;;;16.55;68.99;100901.59;5109615;28;20027;-22
2021/09/29 08:14:56;;;;;;;11.65;10.23;;;;;;;16.92;67.32;100900.44;5109510;28;20028;-22
2021/09/29 08:17:21;;;;;;;12.45;9.60;;;;;;;16.92;67.56;100900.44;5109974;28;20058;-22
2021/09/29 08:19:47;;;;;;;13.48;10.80;;;;;;;16.75;68.14;100905.75;5109827;28;20039;-22
2021/09/29 08:22:13;;;;;;;13.43;10.95;;;;;;;16.90;67.17;100895.31;5109607;28;20110;-22
2021/09/29 08:32:42;;;;;;;11.55;9.80;;;;;;;16.90;68.32;100908.78;5109338;28;20027;-22
2021/09/29 08:37:55;;;;;;;10.57;8.82;;;;;;;16.97;68.02;100911.31;5109606;28;20028;-22
2021/09/29 08:40:24;;;;;;;12.00;9.27;;;;;;;17.17;66.23;100909.00;5109608;28;20467;-22
2021/09/29 08:53:31;;;;;;;10.43;7.90;;;;;;;17.43;65.10;100915.66;5093634;28;20311;-21
2021/09/29 09:17:28;;;;;;;14.75;8.68;;;;;;;17.28;63.66;100915.38;5109194;28;20035;-21
2021/09/29 09:19:54;;;;;;;14.55;7.75;;;;;;;17.64;63.70;100919.50;5109193;28;20107;-22
2021/09/29 09:22:30;;;;;;;10.05;6.78;;;;;;;17.76;61.21;100926.72;5110621;28;20111;-21
2021/09/29 09:24:56;;;;;;;10.95;7.55;;;;;;;17.41;62.70;100925.06;5112974;28;20042;-21
2021/09/29 09:27:21;;;;;;;10.57;7.25;;;;;;;17.53;63.25;100933.91;5113090;28;20036;-21
2021/09/29 09:29:48;;;;;;;9.05;6.82;;;;;;;17.46;62.48;100931.34;5112733;28;20035;-22
2021/09/29 09:32:15;;;;;;;7.85;5.38;;;;;;;17.47;59.95;100924.09;5112796;28;20057;-21
2021/09/29 09:34:40;;;;;;;11.38;6.20;;;;;;;17.27;62.19;100913.78;5112740;28;20030;-22
2021/09/29 09:37:10;;;;;;;7.00;5.28;;;;;;;17.35;60.25;100920.66;5113067;28;20031;-21
2021/09/29 09:39:36;;;;;;;10.63;6.72;;;;;;;17.78;59.88;100925.41;5112779;28;20031;-21
2021/09/29 09:42:01;;;;;;;8.02;6.35;;;;;;;17.67;59.84;100921.75;5112951;28;20034;-22
2021/09/29 09:44:30;;;;;;;7.95;5.93;;;;;;;17.92;60.01;100920.53;5112668;28;20111;-21
2021/09/29 09:47:07;;;;;;;8.40;6.07;;;;;;;18.10;57.69;100927.53;5112360;28;20027;-21
2021/09/29 09:49:52;;;;;;;8.23;6.10;;;;;;;17.91;58.05;100924.28;5112651;28;20494;-21
2021/09/29 09:52:36;;;;;;;9.00;6.20;;;;;;;17.93;59.31;100905.97;5112720;28;20384;-21
2021/09/29 09:55:07;;;;;;;8.93;6.30;;;;;;;18.21;56.91;100934.72;5111944;28;20047;-22
2021/09/29 09:57:34;;;;;;;10.20;5.75;;;;;;;18.28;57.73;100926.44;5112813;28;20039;-21
2021/09/29 09:59:59;;;;;;;7.18;5.38;;;;;;;18.16;58.74;100920.31;5112553;28;20032;-21
2021/09/29 10:02:25;;;;;;;6.95;5.72;;;;;;;17.77;59.26;100928.34;5112417;28;20505;-21
2021/09/29 10:04:50;;;;;;;8.68;5.85;;;;;;;17.76;58.47;100924.03;5112150;28;20031;-22
2021/09/29 10:07:16;;;;;;;7.28;5.43;;;;;;;18.20;57.23;100921.47;5112372;28;20027;-21
2021/09/29 10:10:00;;;;;;;11.45;8.05;;;;;;;18.31;57.87;100928.66;5112036;28;20035;-22
2021/09/29 10:26:10;;;;;;;9.30;5.35;;;;;;;18.29;56.77;100919.97;5029092;28;20118;-21
2021/09/29 10:28:41;;;;;;;9.75;4.63;;;;;;;18.37;56.06;100916.84;5102890;28;20483;-22
2021/09/29 10:33:43;;;;;;;12.05;6.28;;;;;;;18.40;56.10;100924.44;5110694;28;20028;-22
2021/09/29 10:44:51;;;;;;;6.35;4.90;;;;;;;17.94;57.16;100909.47;5111921;28;20404;-21
2021/09/29 11:30:16;;;;;;;10.00;5.65;;;;;;;18.84;53.91;100883.94;5110686;28;20027;-21
2021/09/29 11:32:48;;;;;;;;;;;;;;;19.09;53.81;100879.88;5110708;28;20422;-22
2021/09/29 11:35:46;;;;;;;6.38;4.70;;;;;;;18.94;54.58;100871.59;5110494;28;20013;-21
2021/09/29 12:11:13;;;;;;;;;;;;;;;19.35;51.59;100871.97;5110779;28;20039;-21
2021/09/29 12:13:43;;;;;;;7.15;3.75;;;;;;;19.48;50.50;100874.25;5109794;28;19915;-22
2021/09/29 12:16:09;;;;;;;7.45;3.78;;;;;;;19.64;50.31;100876.00;5109878;28;20065;-22
2021/09/29 12:18:34;;;;;;;8.00;3.50;;;;;;;19.11;50.77;100875.03;5091349;28;20054;-23
2021/09/29 12:21:00;;;;;;;5.60;3.42;;;;;;;18.71;53.25;100865.38;5109721;28;20032;-21
2021/09/29 12:23:25;;;;;;;6.05;3.85;;;;;;;18.87;52.08;100872.59;5109775;28;20035;-21
2021/09/29 12:25:57;;;;;;;7.68;3.65;;;;;;;19.09;51.22;100871.75;5091410;28;20027;-22
2021/09/29 12:36:08;;;;;;;5.75;3.75;;;;;;;20.14;48.99;100859.53;5109670;28;20036;-22
2021/09/29 12:38:37;;;;;;;9.55;5.03;;;;;;;20.12;48.82;100848.16;5109375;28;20114;-22
2021/09/29 12:41:03;;;;;;;6.53;4.10;;;;;;;20.30;48.31;100850.41;5109859;28;20051;-21
2021/09/29 12:43:29;;;;;;;6.45;4.05;;;;;;;20.08;48.83;100839.75;5109475;28;20027;-22
2021/09/29 12:45:54;;;;;;;6.72;3.95;;;;;;;20.13;47.63;100844.41;5109330;28;20475;-21
2021/09/29 12:48:22;;;;;;;5.80;4.15;;;;;;;20.01;48.21;100845.41;5108202;28;20035;-22
2021/09/29 12:50:56;;;;;;;8.65;4.10;;;;;;;20.32;47.86;100847.44;5109201;28;20024;-22
2021/09/29 12:58:33;;;;;;;10.60;4.25;;;;;;;20.72;47.48;100825.13;5109216;28;20536;-21
2021/09/29 13:00:59;;;;;;;7.47;3.83;;;;;;;21.01;45.56;100817.28;5109417;28;20467;-21
2021/09/29 13:03:25;;;;;;;5.93;3.72;;;;;;;21.49;44.32;100832.50;5109355;28;20051;-22
2021/09/29 13:05:50;;;;;;;7.53;3.80;;;;;;;21.56;45.23;100812.13;5109150;28;20043;-21
2021/09/29 13:08:16;;;;;;;8.20;3.70;;;;;;;21.36;46.18;100825.69;5109377;28;20112;-22
2021/09/29 13:10:42;;;;;;;6.75;3.88;;;;;;;21.16;46.08;100824.59;5109039;28;20034;-21
2021/09/29 13:13:09;;;;;;;7.07;3.67;;;;;;;20.16;47.04;100820.28;5109037;28;20039;-21
2021/09/29 13:15:40;;;;;;;7.75;3.83;;;;;;;20.19;48.66;100816.25;5108998;28;20030;-21
2021/09/29 13:18:06;;;;;;;12.00;4.72;;;;;;;19.88;48.23;100837.78;5109082;28;20051;-21
2021/09/29 13:20:31;;;;;;;5.78;4.10;;;;;;;19.60;49.61;100837.00;5108980;28;20555;-21
2021/09/29 13:23:03;;;;;;;153.40;74.30;;;;;;;19.74;48.24;100836.59;5108863;28;20032;-21
2021/09/29 13:25:54;;;;;;;102.05;47.22;;;;;;;19.98;48.35;100837.81;5108619;28;20028;-22
2021/09/29 13:36:39;;;;;;;18.48;6.15;;;;;;;20.22;48.08;100826.53;5076691;28;20039;-22
2021/09/29 13:39:17;;;;;;;11.40;5.30;;;;;;;20.19;48.69;100832.50;5108858;28;20108;-22
2021/09/29 13:41:43;;;;;;;8.70;4.80;;;;;;;20.15;48.87;100831.41;5108856;28;20134;-21
2021/09/29 13:44:09;;;;;;;9.60;6.63;;;;;;;20.31;48.10;100835.81;5108859;28;20027;-21
2021/09/29 13:46:35;;;;;;;9.88;5.32;;;;;;;20.32;48.75;100837.41;5108654;28;20060;-21
2021/09/29 13:49:02;;;;;;;9.32;5.82;;;;;;;20.40;48.44;100838.81;5109060;28;20035;-22
2021/09/29 13:51:29;;;;;;;9.35;4.97;;;;;;;19.94;48.60;100836.72;5108883;28;20028;-21
2021/09/29 13:53:55;;;;;;;11.27;6.40;;;;;;;19.84;50.36;100833.97;5081581;28;20056;-22
2021/09/29 13:56:24;;;;;;;17.23;8.95;;;;;;;19.40;50.48;100823.34;5088338;28;20024;-22
2021/09/29 13:59:00;;;;;;;65.15;31.13;;;;;;;19.68;50.38;100833.00;5070574;28;20032;-22
2021/09/29 14:01:58;;;;;;;73.57;33.05;;;;;;;19.47;50.54;100832.88;5088346;28;20032;-22
2021/09/29 14:31:27;;;;;;;16.05;9.80;;;;;;;19.41;50.84;100849.31;5091446;28;20043;-22
2021/09/29 14:33:52;;;;;;;33.85;18.30;;;;;;;19.40;51.37;100850.38;5091320;28;20028;-21